Time;durP1;ratioP1;P1;durP2;ratioP2;P2;SDS_P1;SDS_P2;PMS_P1;PMS_P2;Temp;Humidity;BMP_temperature;BMP_pressure;BME280_temperature;BME280_humidity;BME280_pressure;Samples;Min_cycle;Max_cycle;Signal;HPM_P1;HPM_P2
2022/12/22 03:26:25;;;;;;;13.85;9.95;;;;;;;1.43;100.00;99478.17;1735838;80;21885;-61
2022/12/22 03:28:52;;;;;;;14.53;11.75;;;;;;;1.44;100.00;99487.68;1733086;80;21514;-61
2022/12/22 03:31:19;;;;;;;17.05;11.35;;;;;;;1.51;100.00;99488.06;1737346;81;21581;-59
2022/12/22 03:33:45;;;;;;;17.67;10.88;;;;;;;1.53;100.00;99497.97;1734572;80;21432;-59
2022/12/22 03:36:12;;;;;;;14.33;9.85;;;;;;;1.48;100.00;99497.98;1734552;81;21628;-59
2022/12/22 03:38:38;;;;;;;16.77;10.85;;;;;;;1.46;100.00;99497.59;1728946;81;21766;-60
2022/12/22 03:41:05;;;;;;;16.87;11.80;;;;;;;1.38;100.00;99495.06;1734973;80;21498;-60
2022/12/22 03:46:50;;;;;;;18.52;12.07;;;;;;;1.46;100.00;99481.60;1735724;81;21431;-62
2022/12/22 03:49:09;;;;;;;15.25;10.90;;;;;;;1.42;100.00;99475.17;1725458;80;21546;-61
2022/12/22 03:51:47;;;;;;;14.70;10.53;;;;;;;1.43;100.00;99472.58;1738596;80;22157;-61
2022/12/22 03:54:16;;;;;;;16.65;11.53;;;;;;;1.41;100.00;99460.48;1725421;80;21514;-61
2022/12/22 03:56:43;;;;;;;18.15;12.05;;;;;;;1.43;100.00;99462.63;1741383;80;21534;-60
2022/12/22 03:59:10;;;;;;;16.75;11.08;;;;;;;1.43;100.00;99460.92;1730331;80;21653;-62
2022/12/22 06:36:45;;;;;;;18.05;12.15;;;;;;;-0.64;100.00;99494.55;1752355;79;23028;-61
2022/12/22 06:39:13;;;;;;;21.93;14.73;;;;;;;-0.12;100.00;99522.49;1734152;81;21760;-62
2022/12/22 06:44:27;;;;;;;22.48;15.13;;;;;;;0.39;100.00;99520.19;1677582;83;21150;-59
2022/12/22 06:46:54;;;;;;;20.93;14.07;;;;;;;0.60;100.00;99527.45;1701966;82;21398;-59
2022/12/22 06:49:20;;;;;;;22.47;14.90;;;;;;;0.76;100.00;99528.25;1674204;83;21865;-62
2022/12/22 06:51:47;;;;;;;21.60;14.20;;;;;;;0.91;100.00;99522.14;1703050;82;21508;-60
2022/12/22 06:54:14;;;;;;;20.77;13.85;;;;;;;1.05;100.00;99519.46;1688020;83;22103;-60
2022/12/22 06:56:41;;;;;;;21.37;13.15;;;;;;;1.16;100.00;99516.37;1721804;80;21519;-59
2022/12/22 06:59:07;;;;;;;24.45;14.20;;;;;;;1.23;100.00;99503.81;1721713;81;21430;-58
2022/12/22 07:01:34;;;;;;;20.52;12.88;;;;;;;1.29;100.00;99499.87;1714759;82;21125;-60
2022/12/22 07:04:01;;;;;;;19.50;13.45;;;;;;;1.41;100.00;99496.76;1717688;82;21517;-58
2022/12/22 07:06:27;;;;;;;19.25;13.65;;;;;;;1.54;100.00;99494.08;1684731;83;22161;-59
2022/12/22 07:08:54;;;;;;;17.75;13.15;;;;;;;1.66;100.00;99487.06;1712136;82;21511;-58
2022/12/22 07:11:21;;;;;;;18.45;12.28;;;;;;;1.74;100.00;99489.14;1679151;83;21092;-60
2022/12/22 07:13:47;;;;;;;18.15;12.68;;;;;;;1.76;100.00;99489.98;1718478;82;21512;-60
2022/12/22 07:16:14;;;;;;;19.07;13.60;;;;;;;1.83;100.00;99495.53;1697775;82;21616;-60
2022/12/22 07:18:41;;;;;;;21.05;13.40;;;;;;;1.94;100.00;99494.11;1706291;82;21438;-59
2022/12/22 07:21:12;;;;;;;18.32;12.63;;;;;;;2.05;100.00;99500.05;1684547;83;21555;-58
2022/12/22 07:23:39;;;;;;;18.02;12.60;;;;;;;2.08;100.00;99505.66;1710552;82;21445;-61
2022/12/22 07:26:07;;;;;;;16.20;11.70;;;;;;;2.09;100.00;99503.47;1684492;83;21557;-61
2022/12/22 07:28:38;;;;;;;20.37;12.78;;;;;;;2.09;100.00;99502.17;1707337;82;21019;-59
2022/12/22 07:31:05;;;;;;;18.07;12.45;;;;;;;2.07;100.00;99506.11;1698378;82;22008;-60
2022/12/22 07:33:31;;;;;;;21.42;15.08;;;;;;;2.16;100.00;99505.13;1709656;81;21637;-60
2022/12/22 07:36:12;;;;;;;17.17;12.78;;;;;;;2.19;100.00;99501.66;1721758;81;21519;-61
2022/12/22 07:38:41;;;;;;;18.45;12.90;;;;;;;2.17;100.00;99500.38;1715901;81;21555;-62
2022/12/22 07:43:56;;;;;;;;;;;;;;;2.12;100.00;99505.59;1679010;83;21938;-62
2022/12/22 07:46:25;;;;;;;18.48;13.00;;;;;;;2.07;100.00;99508.70;1698686;82;20558;-63
2022/12/22 08:04:29;;;;;;;18.95;12.40;;;;;;;2.20;100.00;99517.19;1690115;84;21571;-58
2022/12/22 08:06:55;;;;;;;16.85;11.73;;;;;;;2.19;100.00;99532.34;1691988;84;21587;-57
2022/12/22 08:09:52;;;;;;;20.30;12.03;;;;;;;2.20;100.00;99530.60;1700334;80;21033;-58
2022/12/22 08:12:19;;;;;;;17.40;13.08;;;;;;;2.24;100.00;99516.30;1692921;83;21532;-58
2022/12/22 08:14:47;;;;;;;21.40;13.25;;;;;;;2.35;100.00;99508.38;1693856;83;22016;-59
2022/12/22 08:20:26;;;;;;;17.60;11.93;;;;;;;2.04;100.00;99502.69;1766948;78;23305;-60
2022/12/22 08:22:53;;;;;;;16.82;12.20;;;;;;;2.34;100.00;99511.41;1727489;80;21422;-61
2022/12/22 08:25:19;;;;;;;20.25;13.50;;;;;;;2.43;100.00;99501.80;1740580;80;21834;-60
2022/12/22 08:27:48;;;;;;;22.07;14.87;;;;;;;2.44;100.00;99494.45;1738408;80;21589;-59
2022/12/22 08:30:15;;;;;;;29.65;16.65;;;;;;;2.52;100.00;99489.59;1732409;80;21640;-61
2022/12/22 08:32:42;;;;;;;23.30;14.60;;;;;;;2.66;100.00;99479.47;1741865;80;21482;-60
2022/12/22 08:35:09;;;;;;;18.35;13.32;;;;;;;2.72;100.00;99476.78;1735470;80;21509;-59
2022/12/22 08:37:41;;;;;;;18.85;13.20;;;;;;;2.77;100.00;99469.80;1732966;80;21541;-58
2022/12/22 08:40:10;;;;;;;21.65;13.90;;;;;;;2.82;100.00;99468.42;1742707;80;21506;-59
2022/12/22 08:42:37;;;;;;;22.02;14.38;;;;;;;2.88;100.00;99454.92;1731375;80;21503;-61
2022/12/22 08:45:07;;;;;;;19.57;14.23;;;;;;;3.02;100.00;99460.35;1744675;80;21583;-61
2022/12/22 08:47:33;;;;;;;16.65;12.68;;;;;;;3.12;100.00;99464.06;1738593;80;21639;-60
2022/12/22 08:50:00;;;;;;;15.35;11.33;;;;;;;3.16;100.00;99456.23;1744368;80;21806;-61
2022/12/22 08:52:26;;;;;;;19.67;11.93;;;;;;;3.20;100.00;99457.48;1738104;80;21580;-59
2022/12/22 08:54:56;;;;;;;20.23;13.27;;;;;;;3.20;100.00;99457.89;1735536;80;20953;-59
2022/12/22 08:57:24;;;;;;;20.60;13.80;;;;;;;3.21;100.00;99459.63;1736980;80;21576;-62
2022/12/22 08:59:51;;;;;;;19.77;14.60;;;;;;;3.31;100.00;99449.06;1737179;80;21533;-62
2022/12/22 09:02:18;;;;;;;17.77;12.85;;;;;;;3.41;100.00;99447.59;1742248;80;21577;-62
2022/12/22 09:04:45;;;;;;;18.12;13.35;;;;;;;3.47;100.00;99456.61;1735912;80;21409;-62
2022/12/22 09:07:12;;;;;;;19.57;12.63;;;;;;;3.52;100.00;99450.86;1734097;80;21076;-61
2022/12/22 09:09:39;;;;;;;18.92;12.93;;;;;;;3.55;100.00;99455.17;1744510;80;21572;-61
2022/12/22 09:12:06;;;;;;;18.10;13.35;;;;;;;3.42;100.00;99456.66;1727162;80;21513;-60
2022/12/22 09:14:33;;;;;;;16.97;12.60;;;;;;;3.48;100.00;99457.88;1738810;80;21789;-61
2022/12/22 09:17:00;;;;;;;17.75;13.05;;;;;;;3.56;100.00;99459.47;1742973;80;21470;-62
2022/12/22 09:19:26;;;;;;;18.00;11.73;;;;;;;3.55;100.00;99453.88;1728433;80;21483;-61
2022/12/22 09:21:53;;;;;;;16.85;11.85;;;;;;;3.62;100.00;99452.44;1725976;81;21534;-60
2022/12/22 09:24:20;;;;;;;16.25;11.70;;;;;;;3.69;100.00;99450.56;1728636;80;21572;-61
2022/12/22 09:26:47;;;;;;;19.57;12.50;;;;;;;3.78;100.00;99460.80;1723988;81;21823;-60
2022/12/22 09:29:14;;;;;;;22.58;13.25;;;;;;;3.82;100.00;99462.46;1725421;81;21550;-62
2022/12/22 09:31:41;;;;;;;17.90;13.55;;;;;;;3.92;100.00;99461.00;1726168;80;21534;-59
2022/12/22 09:34:07;;;;;;;17.73;12.30;;;;;;;4.01;100.00;99460.83;1715621;80;21567;-59
2022/12/22 09:36:34;;;;;;;16.87;11.65;;;;;;;4.04;100.00;99457.73;1727822;81;21573;-62
2022/12/22 09:39:05;;;;;;;15.08;11.78;;;;;;;4.09;100.00;99455.90;1721905;81;21783;-62
2022/12/22 09:41:45;;;;;;;17.30;12.37;;;;;;;4.17;100.00;99460.95;1716038;81;21412;-60
2022/12/22 09:44:25;;;;;;;21.65;13.08;;;;;;;4.17;100.00;99456.20;1717610;80;21544;-59
2022/12/22 09:46:56;;;;;;;20.60;14.00;;;;;;;4.17;100.00;99460.11;1723098;80;21540;-61
2022/12/22 09:49:22;;;;;;;17.07;12.80;;;;;;;4.22;100.00;99457.83;1728817;80;21631;-61
2022/12/22 09:51:55;;;;;;;17.10;12.30;;;;;;;4.25;100.00;99453.84;1728312;80;22056;-58
2022/12/22 09:54:22;;;;;;;16.70;11.80;;;;;;;4.30;100.00;99452.47;1707966;80;21933;-59
2022/12/22 09:56:49;;;;;;;15.90;10.95;;;;;;;4.30;100.00;99455.06;1676809;82;21567;-59
2022/12/22 09:59:19;;;;;;;17.80;12.03;;;;;;;4.27;100.00;99455.97;1727812;81;21006;-58
2022/12/22 10:02:06;;;;;;;17.50;11.48;;;;;;;4.21;100.00;99457.85;1717601;80;21426;-60
2022/12/22 10:49:38;;;;;;;35.17;20.97;;;;;;;1.97;100.00;99412.86;1755832;79;23268;-61
2022/12/22 10:52:23;;;;;;;34.35;21.90;;;;;;;2.44;100.00;99424.38;1732348;81;21662;-62
2022/12/22 10:54:50;;;;;;;36.20;22.85;;;;;;;2.74;100.00;99414.00;1695003;81;21852;-58
2022/12/22 10:57:22;;;;;;;33.98;22.70;;;;;;;2.94;100.00;99407.22;1703815;83;21508;-58
2022/12/22 10:59:54;;;;;;;28.47;20.52;;;;;;;3.16;100.00;99404.27;1729628;80;21489;-58
2022/12/22 11:02:28;;;;;;;22.73;17.80;;;;;;;3.29;100.00;99396.23;1730210;81;21528;-60
2022/12/22 11:05:08;;;;;;;20.05;14.98;;;;;;;3.43;100.00;99392.56;1729596;81;21584;-60
2022/12/22 11:07:41;;;;;;;23.65;17.37;;;;;;;3.54;100.00;99393.65;1720565;81;21821;-62
2022/12/22 11:10:27;;;;;;;21.30;15.72;;;;;;;3.61;100.00;99391.36;1730694;81;21619;-61
2022/12/22 11:13:20;;;;;;;23.18;16.55;;;;;;;3.72;100.00;99401.11;1729498;81;21611;-61
2022/12/22 11:16:20;;;;;;;24.25;15.80;;;;;;;3.86;100.00;99395.64;1730900;81;21455;-63
2022/12/22 11:19:24;;;;;;;21.87;15.78;;;;;;;3.96;100.00;99388.54;1731207;81;21161;-60
2022/12/22 11:22:06;;;;;;;19.80;14.65;;;;;;;4.01;100.00;99390.16;1730820;81;21766;-60
2022/12/22 11:24:49;;;;;;;20.48;14.23;;;;;;;4.03;100.00;99397.91;1725872;81;21606;-59
2022/12/22 11:27:34;;;;;;;20.50;14.25;;;;;;;4.05;100.00;99398.73;1721579;81;21518;-60
2022/12/22 11:30:22;;;;;;;29.05;18.52;;;;;;;4.05;100.00;99407.42;1727864;81;21029;-62
2022/12/22 11:33:19;;;;;;;35.35;22.48;;;;;;;4.05;100.00;99401.33;1720527;81;21570;-59
2022/12/22 11:36:00;;;;;;;36.30;23.75;;;;;;;4.09;100.00;99408.22;1729589;81;21938;-61
2022/12/22 11:38:47;;;;;;;28.50;19.40;;;;;;;4.07;100.00;99405.64;1721917;81;21540;-62
2022/12/22 11:41:55;;;;;;;36.63;30.00;;;;;;;4.01;100.00;99396.66;1732503;81;21593;-62
2022/12/22 11:45:01;;;;;;;40.85;35.73;;;;;;;3.99;100.00;99394.51;1732036;81;21427;-62
2022/12/22 11:47:42;;;;;;;51.90;38.50;;;;;;;3.96;100.00;99393.74;1731757;81;20994;-62
2022/12/22 11:50:30;;;;;;;41.10;31.35;;;;;;;3.98;100.00;99398.02;1687030;82;21850;-61
2022/12/22 11:53:23;;;;;;;;;;;;;;;4.04;100.00;99401.79;1714545;82;21128;-62
2022/12/22 11:56:16;;;;;;;39.30;24.23;;;;;;;4.00;100.00;99397.98;1722696;82;20442;-60
2022/12/22 11:58:55;;;;;;;46.50;28.83;;;;;;;3.95;100.00;99401.97;1722144;82;21459;-62
2022/12/22 12:01:48;;;;;;;35.45;24.50;;;;;;;3.93;100.00;99405.50;1716558;82;20986;-62
2022/12/22 12:04:54;;;;;;;41.40;28.87;;;;;;;3.92;100.00;99404.65;1724799;82;21895;-62
2022/12/22 12:07:44;;;;;;;37.65;24.23;;;;;;;3.96;100.00;99411.95;1719323;82;21584;-61
2022/12/22 12:10:33;;;;;;;31.70;21.25;;;;;;;4.01;100.00;99417.90;1612470;82;21685;-61
2022/12/22 12:13:25;;;;;;;28.87;19.57;;;;;;;4.01;100.00;99416.17;1715663;80;21455;-62
2022/12/22 12:16:18;;;;;;;28.75;19.02;;;;;;;4.01;100.00;99421.38;1721217;82;21487;-62
2022/12/22 12:19:16;;;;;;;42.95;24.65;;;;;;;3.98;100.00;99415.38;1718124;82;21404;-63
2022/12/22 12:21:52;;;;;;;40.65;24.87;;;;;;;3.96;100.00;99421.05;1724796;82;21025;-63
2022/12/22 12:24:59;;;;;;;28.30;18.77;;;;;;;3.97;100.00;99426.66;1721691;82;21495;-61
2022/12/22 12:27:49;;;;;;;52.00;30.02;;;;;;;4.05;100.00;99422.15;1716366;82;21550;-62
2022/12/22 12:30:19;;;;;;;51.25;29.57;;;;;;;4.04;100.00;99428.25;1722323;81;21517;-63
2022/12/22 12:33:19;;;;;;;38.58;22.82;;;;;;;3.98;100.00;99423.19;1719071;82;21902;-63
2022/12/22 12:36:10;;;;;;;54.67;28.65;;;;;;;4.01;100.00;99421.80;1724838;82;21483;-64
2022/12/22 12:39:08;;;;;;;65.17;30.62;;;;;;;3.98;100.00;99412.78;1719663;82;21529;-60
2022/12/22 12:42:11;;;;;;;49.00;32.05;;;;;;;4.05;100.00;99413.04;1722084;82;21502;-60
2022/12/22 12:44:38;;;;;;;72.72;40.88;;;;;;;4.13;100.00;99410.31;1721430;82;21577;-61
2022/12/22 12:47:31;;;;;;;73.22;43.87;;;;;;;4.07;100.00;99404.34;1725200;82;21845;-61
2022/12/22 12:50:32;;;;;;;44.60;27.40;;;;;;;4.10;100.00;99409.46;1723029;82;21479;-63
2022/12/22 12:53:06;;;;;;;40.67;25.12;;;;;;;4.11;100.00;99410.34;1721096;82;20978;-61
2022/12/22 12:55:39;;;;;;;37.75;23.83;;;;;;;4.11;100.00;99410.34;1729464;82;21592;-61
2022/12/22 12:58:11;;;;;;;35.15;21.85;;;;;;;4.11;100.00;99401.23;1718903;82;21059;-59
2022/12/22 13:00:41;;;;;;;48.23;27.80;;;;;;;4.10;100.00;99404.71;1718338;82;21442;-59
2022/12/22 13:03:11;;;;;;;48.23;29.07;;;;;;;4.14;100.00;99397.70;1718057;80;21549;-58
2022/12/22 13:05:53;;;;;;;33.38;21.35;;;;;;;4.19;100.00;99399.77;1719302;82;21598;-59
2022/12/22 13:08:33;;;;;;;40.03;26.27;;;;;;;4.18;100.00;99405.44;1718414;82;21743;-61
2022/12/22 13:11:11;;;;;;;28.77;18.90;;;;;;;4.20;100.00;99390.64;1697954;82;21460;-59
2022/12/22 13:13:42;;;;;;;21.97;16.05;;;;;;;4.21;100.00;99393.64;1718706;82;21438;-59
2022/12/22 13:16:21;;;;;;;22.45;15.10;;;;;;;4.21;100.00;99395.39;1712839;82;21601;-59
2022/12/22 13:18:48;;;;;;;24.72;16.62;;;;;;;4.19;100.00;99391.52;1728029;82;21435;-60
2022/12/22 13:21:24;;;;;;;28.35;17.73;;;;;;;4.28;100.00;99391.78;1721486;82;21634;-58
2022/12/22 13:24:18;;;;;;;37.73;24.47;;;;;;;4.34;100.00;99386.43;1726678;82;21416;-59
2022/12/22 13:26:46;;;;;;;35.85;22.62;;;;;;;4.32;100.00;99388.66;1730716;82;21774;-62
2022/12/22 13:29:25;;;;;;;33.83;21.33;;;;;;;4.27;100.00;99393.50;1717436;82;21096;-62
2022/12/22 13:32:00;;;;;;;28.77;19.37;;;;;;;4.27;100.00;99392.66;1723951;82;21503;-60
2022/12/22 13:34:37;;;;;;;26.87;18.75;;;;;;;4.25;100.00;99399.64;1721810;82;20987;-59
2022/12/22 13:37:19;;;;;;;25.23;17.52;;;;;;;4.21;100.00;99401.90;1722017;82;21531;-60
2022/12/22 13:40:07;;;;;;;26.65;17.23;;;;;;;4.14;100.00;99405.51;1709453;82;21868;-60
2022/12/22 13:42:38;;;;;;;26.12;16.20;;;;;;;4.21;100.00;99401.90;1707574;82;21505;-59
2022/12/22 13:45:12;;;;;;;20.57;14.83;;;;;;;4.23;100.00;99403.56;1721707;82;21585;-59
2022/12/22 13:47:42;;;;;;;23.25;15.23;;;;;;;4.17;100.00;99395.05;1716288;80;21463;-62
2022/12/22 13:50:24;;;;;;;19.82;14.45;;;;;;;4.17;100.00;99387.24;1720006;82;21565;-60
2022/12/22 13:52:51;;;;;;;21.82;14.95;;;;;;;4.17;100.00;99394.59;1718661;82;21507;-59
2022/12/22 13:55:25;;;;;;;19.55;14.75;;;;;;;4.15;100.00;99409.84;1723661;82;21130;-59
2022/12/22 13:57:52;;;;;;;24.57;17.70;;;;;;;4.15;100.00;99409.84;1724876;82;21498;-60
2022/12/22 14:00:24;;;;;;;24.60;18.17;;;;;;;4.13;100.00;99411.62;1720086;82;21625;-60
2022/12/22 14:02:51;;;;;;;25.48;17.77;;;;;;;4.19;100.00;99405.83;1724644;82;21446;-60
2022/12/22 22:26:59;;;;;;;25.30;15.65;;;;;;;0.80;100.00;99281.92;1805747;76;26891;-63
2022/12/22 22:29:25;;;;;;;27.25;17.75;;;;;;;1.19;100.00;99302.69;1788491;78;21064;-62
2022/12/22 22:31:52;;;;;;;30.25;19.32;;;;;;;1.45;100.00;99298.53;1797986;78;21851;-62
2022/12/22 22:34:19;;;;;;;30.77;20.00;;;;;;;1.68;100.00;99290.48;1790233;77;21709;-64
2022/12/22 22:36:46;;;;;;;24.13;16.30;;;;;;;1.88;100.00;99282.88;1804009;78;21563;-63
2022/12/22 22:39:12;;;;;;;30.72;19.30;;;;;;;2.04;100.00;99284.84;1784068;78;22212;-64
2022/12/22 22:41:39;;;;;;;29.20;19.02;;;;;;;2.19;100.00;99274.23;1794120;78;21424;-63
2022/12/22 22:44:05;;;;;;;32.95;19.17;;;;;;;2.27;100.00;99259.85;1758265;80;21817;-63
2022/12/22 22:46:32;;;;;;;28.65;17.70;;;;;;;2.34;100.00;99257.59;1761389;80;21568;-63
2022/12/22 22:49:00;;;;;;;29.05;18.62;;;;;;;2.44;100.00;99246.62;1773584;80;21611;-63
2022/12/22 22:51:26;;;;;;;;;;;;;;;2.56;100.00;99245.55;1761741;80;21543;-62
2022/12/22 22:53:53;;;;;;;22.42;15.88;;;;;;;2.57;100.00;99244.68;1757704;80;20477;-64
2022/12/22 22:56:19;;;;;;;23.30;15.03;;;;;;;2.61;100.00;99251.53;1733943;81;21774;-63
2022/12/22 22:58:46;;;;;;;20.77;13.87;;;;;;;2.67;100.00;99250.97;1737843;80;21023;-63
2022/12/22 23:01:13;;;;;;;19.80;14.65;;;;;;;2.71;100.00;99241.39;1732706;81;21524;-63
2022/12/22 23:03:40;;;;;;;21.82;15.75;;;;;;;2.82;100.00;99230.38;1751150;80;21425;-65
2022/12/22 23:06:09;;;;;;;23.70;14.93;;;;;;;2.88;100.00;99216.00;1805466;78;21028;-64
2022/12/22 23:08:35;;;;;;;19.80;14.07;;;;;;;2.93;100.00;99223.70;1803956;78;21736;-64
2022/12/22 23:11:02;;;;;;;21.00;14.05;;;;;;;2.93;100.00;99225.00;1800226;78;21569;-62
2022/12/22 23:13:29;;;;;;;19.65;14.20;;;;;;;2.93;100.00;99228.44;1764465;80;21612;-63
2022/12/22 23:15:59;;;;;;;21.53;15.17;;;;;;;2.99;100.00;99222.28;1771499;79;21482;-63
2022/12/22 23:18:26;;;;;;;20.00;13.20;;;;;;;3.05;100.00;99226.08;1763773;80;21478;-64
2022/12/22 23:20:55;;;;;;;20.08;13.88;;;;;;;3.06;100.00;99229.08;1805785;78;22092;-63
2022/12/22 23:23:21;;;;;;;16.20;12.60;;;;;;;3.04;100.00;99219.16;1789136;78;21208;-63
2022/12/22 23:25:49;;;;;;;20.23;13.93;;;;;;;3.06;100.00;99221.73;1797279;78;21521;-63
2022/12/22 23:28:16;;;;;;;21.33;13.60;;;;;;;3.03;100.00;99222.66;1806769;78;21516;-63
2022/12/22 23:30:46;;;;;;;21.07;13.28;;;;;;;3.04;100.00;99219.61;1797276;78;21505;-64
2022/12/22 23:33:13;;;;;;;24.77;14.60;;;;;;;3.00;100.00;99212.77;1805676;78;22128;-62
2022/12/22 23:35:40;;;;;;;24.63;14.90;;;;;;;3.01;100.00;99225.70;1778111;78;21472;-63
2022/12/22 23:38:09;;;;;;;18.62;13.32;;;;;;;2.99;100.00;99220.98;1800398;78;20956;-64
2022/12/22 23:40:37;;;;;;;19.42;13.68;;;;;;;2.94;100.00;99220.23;1784177;77;21573;-62
2022/12/22 23:43:05;;;;;;;19.10;13.18;;;;;;;2.92;100.00;99218.95;1796827;78;21535;-62
2022/12/22 23:45:32;;;;;;;15.50;12.13;;;;;;;2.91;100.00;99220.27;1771446;79;21605;-63
2022/12/22 23:47:59;;;;;;;15.68;11.73;;;;;;;2.92;100.00;99217.66;1769032;80;21388;-62
2022/12/22 23:50:26;;;;;;;17.55;12.70;;;;;;;2.90;100.00;99219.42;1785829;77;21551;-63
2022/12/22 23:52:53;;;;;;;16.60;12.80;;;;;;;2.88;100.00;99213.83;1804317;78;21491;-64
2022/12/22 23:55:20;;;;;;;16.82;12.05;;;;;;;2.89;100.00;99207.31;1804860;77;21486;-63
2022/12/22 23:57:49;;;;;;;17.77;12.05;;;;;;;2.92;100.00;99197.33;1805457;77;21968;-64
